sensor_id;sensor_type;location;lat;lon;timestamp;temperature;humidity
71155;DHT22;59375;53.216;5.728;2022-11-20T00:00:05;1.20;99.90
71155;DHT22;59375;53.216;5.728;2022-11-20T00:02:30;1.20;99.90
71155;DHT22;59375;53.216;5.728;2022-11-20T00:04:56;1.20;99.90
71155;DHT22;59375;53.216;5.728;2022-11-20T00:07:22;1.20;99.90
71155;DHT22;59375;53.216;5.728;2022-11-20T00:09:47;1.20;99.90
71155;DHT22;59375;53.216;5.728;2022-11-20T00:12:12;1.20;99.90
71155;DHT22;59375;53.216;5.728;2022-11-20T00:14:38;1.20;99.90
71155;DHT22;59375;53.216;5.728;2022-11-20T00:17:04;1.20;99.90
71155;DHT22;59375;53.216;5.728;2022-11-20T00:19:29;1.20;99.90
71155;DHT22;59375;53.216;5.728;2022-11-20T00:21:54;1.20;99.90
71155;DHT22;59375;53.216;5.728;2022-11-20T00:24:20;1.30;99.90
71155;DHT22;59375;53.216;5.728;2022-11-20T00:26:46;1.30;99.90
71155;DHT22;59375;53.216;5.728;2022-11-20T00:29:11;1.20;99.90
71155;DHT22;59375;53.216;5.728;2022-11-20T00:31:37;1.20;99.90
71155;DHT22;59375;53.216;5.728;2022-11-20T00:34:02;1.00;99.90
71155;DHT22;59375;53.216;5.728;2022-11-20T00:36:28;0.80;99.90
71155;DHT22;59375;53.216;5.728;2022-11-20T00:38:55;0.80;99.90
71155;DHT22;59375;53.216;5.728;2022-11-20T00:41:21;0.70;99.90
71155;DHT22;59375;53.216;5.728;2022-11-20T00:43:46;0.80;99.90
71155;DHT22;59375;53.216;5.728;2022-11-20T00:46:13;0.80;99.90
71155;DHT22;59375;53.216;5.728;2022-11-20T00:48:39;0.90;99.90
71155;DHT22;59375;53.216;5.728;2022-11-20T00:51:04;0.90;99.90
71155;DHT22;59375;53.216;5.728;2022-11-20T00:53:30;0.90;99.90
71155;DHT22;59375;53.216;5.728;2022-11-20T00:55:56;0.90;99.90
71155;DHT22;59375;53.216;5.728;2022-11-20T00:58:22;0.90;99.90
71155;DHT22;59375;53.216;5.728;2022-11-20T01:00:48;1.00;99.90
71155;DHT22;59375;53.216;5.728;2022-11-20T01:03:15;0.90;99.90
71155;DHT22;59375;53.216;5.728;2022-11-20T01:05:41;0.90;99.90
71155;DHT22;59375;53.216;5.728;2022-11-20T01:08:06;0.90;99.90
71155;DHT22;59375;53.216;5.728;2022-11-20T01:10:32;0.90;99.90
71155;DHT22;59375;53.216;5.728;2022-11-20T01:12:57;0.90;99.90
71155;DHT22;59375;53.216;5.728;2022-11-20T01:15:41;0.90;99.90
71155;DHT22;59375;53.216;5.728;2022-11-20T01:18:07;0.90;99.90
71155;DHT22;59375;53.216;5.728;2022-11-20T01:20:35;1.00;99.90
71155;DHT22;59375;53.216;5.728;2022-11-20T01:23:02;1.00;99.90
71155;DHT22;59375;53.216;5.728;2022-11-20T01:25:27;0.90;99.90
71155;DHT22;59375;53.216;5.728;2022-11-20T01:27:53;0.90;99.90
71155;DHT22;59375;53.216;5.728;2022-11-20T01:30:18;0.90;99.90
71155;DHT22;59375;53.216;5.728;2022-11-20T01:32:44;0.90;99.90
71155;DHT22;59375;53.216;5.728;2022-11-20T01:35:09;1.00;99.90
71155;DHT22;59375;53.216;5.728;2022-11-20T01:37:35;0.90;99.90
71155;DHT22;59375;53.216;5.728;2022-11-20T01:40:01;0.90;99.90
71155;DHT22;59375;53.216;5.728;2022-11-20T01:42:26;0.90;99.90
71155;DHT22;59375;53.216;5.728;2022-11-20T01:47:55;0.90;99.90
71155;DHT22;59375;53.216;5.728;2022-11-20T01:50:27;0.90;99.90
71155;DHT22;59375;53.216;5.728;2022-11-20T01:53:01;0.90;99.90
71155;DHT22;59375;53.216;5.728;2022-11-20T01:55:37;1.00;99.90
71155;DHT22;59375;53.216;5.728;2022-11-20T01:58:04;1.00;99.90
71155;DHT22;59375;53.216;5.728;2022-11-20T02:00:30;1.00;99.90
71155;DHT22;59375;53.216;5.728;2022-11-20T02:02:59;1.00;99.90
71155;DHT22;59375;53.216;5.728;2022-11-20T02:05:32;1.00;99.90
71155;DHT22;59375;53.216;5.728;2022-11-20T02:07:59;1.00;99.90
71155;DHT22;59375;53.216;5.728;2022-11-20T02:10:24;1.00;99.90
71155;DHT22;59375;53.216;5.728;2022-11-20T02:12:51;1.10;99.90
71155;DHT22;59375;53.216;5.728;2022-11-20T02:15:35;1.00;99.90
71155;DHT22;59375;53.216;5.728;2022-11-20T02:18:00;1.10;99.90
71155;DHT22;59375;53.216;5.728;2022-11-20T02:20:26;1.00;99.90
71155;DHT22;59375;53.216;5.728;2022-11-20T02:22:56;1.00;99.90
71155;DHT22;59375;53.216;5.728;2022-11-20T02:25:24;0.90;99.90
71155;DHT22;59375;53.216;5.728;2022-11-20T02:27:51;0.90;99.90
71155;DHT22;59375;53.216;5.728;2022-11-20T02:30:17;0.90;99.90
71155;DHT22;59375;53.216;5.728;2022-11-20T02:32:42;0.90;99.90
71155;DHT22;59375;53.216;5.728;2022-11-20T02:35:09;0.90;99.90
71155;DHT22;59375;53.216;5.728;2022-11-20T02:37:35;1.00;99.90
71155;DHT22;59375;53.216;5.728;2022-11-20T02:40:01;1.00;99.90
71155;DHT22;59375;53.216;5.728;2022-11-20T02:42:27;1.00;99.90
71155;DHT22;59375;53.216;5.728;2022-11-20T02:44:52;1.00;99.90
71155;DHT22;59375;53.216;5.728;2022-11-20T02:47:18;1.00;99.90
71155;DHT22;59375;53.216;5.728;2022-11-20T02:49:43;1.00;99.90
71155;DHT22;59375;53.216;5.728;2022-11-20T02:52:08;1.00;99.90
71155;DHT22;59375;53.216;5.728;2022-11-20T02:54:34;1.00;99.90
71155;DHT22;59375;53.216;5.728;2022-11-20T02:56:59;1.00;99.90
71155;DHT22;59375;53.216;5.728;2022-11-20T02:59:25;1.00;99.90
71155;DHT22;59375;53.216;5.728;2022-11-20T03:01:50;1.00;99.90
71155;DHT22;59375;53.216;5.728;2022-11-20T03:04:16;1.00;99.90
71155;DHT22;59375;53.216;5.728;2022-11-20T03:06:41;1.10;99.90
71155;DHT22;59375;53.216;5.728;2022-11-20T03:09:06;1.10;99.90
71155;DHT22;59375;53.216;5.728;2022-11-20T03:11:32;1.10;99.90
71155;DHT22;59375;53.216;5.728;2022-11-20T03:13:57;1.10;99.90
71155;DHT22;59375;53.216;5.728;2022-11-20T03:16:26;1.00;99.90
71155;DHT22;59375;53.216;5.728;2022-11-20T03:18:52;1.00;99.90
71155;DHT22;59375;53.216;5.728;2022-11-20T03:21:18;1.00;99.90
71155;DHT22;59375;53.216;5.728;2022-11-20T03:23:43;1.00;99.90
71155;DHT22;59375;53.216;5.728;2022-11-20T03:28:37;1.00;99.90
71155;DHT22;59375;53.216;5.728;2022-11-20T03:31:10;1.00;99.90
71155;DHT22;59375;53.216;5.728;2022-11-20T03:33:36;1.00;99.90
71155;DHT22;59375;53.216;5.728;2022-11-20T03:36:05;0.90;99.90
71155;DHT22;59375;53.216;5.728;2022-11-20T03:38:30;0.90;99.90
71155;DHT22;59375;53.216;5.728;2022-11-20T03:41:03;0.90;99.90
71155;DHT22;59375;53.216;5.728;2022-11-20T03:43:29;0.90;99.90
71155;DHT22;59375;53.216;5.728;2022-11-20T03:45:55;0.80;99.90
71155;DHT22;59375;53.216;5.728;2022-11-20T03:48:21;0.80;99.90
71155;DHT22;59375;53.216;5.728;2022-11-20T03:50:46;0.80;99.90
71155;DHT22;59375;53.216;5.728;2022-11-20T03:53:15;0.70;99.90
71155;DHT22;59375;53.216;5.728;2022-11-20T03:55:41;0.70;99.90
71155;DHT22;59375;53.216;5.728;2022-11-20T03:58:06;0.70;99.90
71155;DHT22;59375;53.216;5.728;2022-11-20T04:00:31;0.60;99.90
71155;DHT22;59375;53.216;5.728;2022-11-20T04:02:57;0.60;99.90
71155;DHT22;59375;53.216;5.728;2022-11-20T04:05:23;0.50;99.90
71155;DHT22;59375;53.216;5.728;2022-11-20T04:07:49;0.40;99.90
71155;DHT22;59375;53.216;5.728;2022-11-20T04:10:14;0.40;99.90
71155;DHT22;59375;53.216;5.728;2022-11-20T04:12:39;0.40;99.90
71155;DHT22;59375;53.216;5.728;2022-11-20T04:15:05;0.40;99.90
71155;DHT22;59375;53.216;5.728;2022-11-20T04:17:30;0.30;99.90
71155;DHT22;59375;53.216;5.728;2022-11-20T04:19:56;0.30;99.90
71155;DHT22;59375;53.216;5.728;2022-11-20T04:22:21;0.30;99.90
71155;DHT22;59375;53.216;5.728;2022-11-20T04:24:47;0.30;99.90
71155;DHT22;59375;53.216;5.728;2022-11-20T04:27:12;0.30;99.90
71155;DHT22;59375;53.216;5.728;2022-11-20T04:29:38;0.20;99.90
71155;DHT22;59375;53.216;5.728;2022-11-20T04:32:03;0.20;99.90
71155;DHT22;59375;53.216;5.728;2022-11-20T04:34:29;0.20;99.90
71155;DHT22;59375;53.216;5.728;2022-11-20T04:36:54;0.20;99.90
71155;DHT22;59375;53.216;5.728;2022-11-20T04:39:19;0.20;99.90
71155;DHT22;59375;53.216;5.728;2022-11-20T04:41:45;0.20;99.90
71155;DHT22;59375;53.216;5.728;2022-11-20T04:44:10;0.20;99.90
71155;DHT22;59375;53.216;5.728;2022-11-20T04:46:37;0.20;99.90
71155;DHT22;59375;53.216;5.728;2022-11-20T04:49:03;0.20;99.90
71155;DHT22;59375;53.216;5.728;2022-11-20T04:51:28;0.20;99.90
71155;DHT22;59375;53.216;5.728;2022-11-20T04:53:54;0.20;99.90
71155;DHT22;59375;53.216;5.728;2022-11-20T04:56:19;0.10;99.90
71155;DHT22;59375;53.216;5.728;2022-11-20T04:58:45;0.10;99.90
71155;DHT22;59375;53.216;5.728;2022-11-20T05:01:11;0.10;99.90
71155;DHT22;59375;53.216;5.728;2022-11-20T05:03:37;0.10;99.90
71155;DHT22;59375;53.216;5.728;2022-11-20T05:06:03;0.00;99.90
71155;DHT22;59375;53.216;5.728;2022-11-20T05:08:29;0.00;99.90
71155;DHT22;59375;53.216;5.728;2022-11-20T05:10:59;0.00;99.90
71155;DHT22;59375;53.216;5.728;2022-11-20T05:13:24;0.00;99.90
71155;DHT22;59375;53.216;5.728;2022-11-20T05:15:50;-0.10;99.90
71155;DHT22;59375;53.216;5.728;2022-11-20T05:18:15;-0.10;99.90
71155;DHT22;59375;53.216;5.728;2022-11-20T05:20:41;-0.10;99.90
71155;DHT22;59375;53.216;5.728;2022-11-20T05:23:06;-0.10;99.90
71155;DHT22;59375;53.216;5.728;2022-11-20T05:25:32;-0.10;99.90
71155;DHT22;59375;53.216;5.728;2022-11-20T05:27:57;-0.20;99.90
71155;DHT22;59375;53.216;5.728;2022-11-20T05:30:22;-0.20;99.90
71155;DHT22;59375;53.216;5.728;2022-11-20T05:32:48;-0.20;99.90
71155;DHT22;59375;53.216;5.728;2022-11-20T05:35:13;-0.20;99.90
71155;DHT22;59375;53.216;5.728;2022-11-20T05:37:39;-0.20;99.90
71155;DHT22;59375;53.216;5.728;2022-11-20T05:40:04;-0.30;99.90
71155;DHT22;59375;53.216;5.728;2022-11-20T05:42:30;-0.30;99.90
71155;DHT22;59375;53.216;5.728;2022-11-20T05:44:56;-0.30;99.90
71155;DHT22;59375;53.216;5.728;2022-11-20T05:47:22;-0.30;99.90
71155;DHT22;59375;53.216;5.728;2022-11-20T05:49:47;-0.30;99.90
71155;DHT22;59375;53.216;5.728;2022-11-20T05:52:13;-0.30;99.90
71155;DHT22;59375;53.216;5.728;2022-11-20T05:54:38;-0.30;99.90
71155;DHT22;59375;53.216;5.728;2022-11-20T05:57:04;-0.30;99.90
71155;DHT22;59375;53.216;5.728;2022-11-20T05:59:29;-0.30;99.90
71155;DHT22;59375;53.216;5.728;2022-11-20T06:01:54;-0.30;99.90
71155;DHT22;59375;53.216;5.728;2022-11-20T06:04:20;-0.30;99.90
71155;DHT22;59375;53.216;5.728;2022-11-20T06:06:45;-0.30;99.90
71155;DHT22;59375;53.216;5.728;2022-11-20T06:09:11;-0.30;99.90
71155;DHT22;59375;53.216;5.728;2022-11-20T06:11:36;-0.30;99.90
71155;DHT22;59375;53.216;5.728;2022-11-20T06:14:01;-0.30;99.90
71155;DHT22;59375;53.216;5.728;2022-11-20T06:16:27;-0.20;99.90
71155;DHT22;59375;53.216;5.728;2022-11-20T06:18:52;-0.20;99.90
71155;DHT22;59375;53.216;5.728;2022-11-20T06:21:18;-0.20;99.90
71155;DHT22;59375;53.216;5.728;2022-11-20T06:23:44;-0.20;99.90
71155;DHT22;59375;53.216;5.728;2022-11-20T06:26:11;-0.20;99.90
71155;DHT22;59375;53.216;5.728;2022-11-20T06:28:37;-0.30;99.90
71155;DHT22;59375;53.216;5.728;2022-11-20T06:31:03;-0.30;99.90
71155;DHT22;59375;53.216;5.728;2022-11-20T06:33:29;-0.30;99.90
71155;DHT22;59375;53.216;5.728;2022-11-20T06:35:58;-0.30;99.90
71155;DHT22;59375;53.216;5.728;2022-11-20T06:38:24;-0.30;99.90
71155;DHT22;59375;53.216;5.728;2022-11-20T06:40:49;-0.30;99.90
71155;DHT22;59375;53.216;5.728;2022-11-20T06:43:15;-0.20;99.90
71155;DHT22;59375;53.216;5.728;2022-11-20T06:45:40;-0.20;99.90
71155;DHT22;59375;53.216;5.728;2022-11-20T06:48:06;-0.20;99.90
71155;DHT22;59375;53.216;5.728;2022-11-20T06:50:31;-0.20;99.90
71155;DHT22;59375;53.216;5.728;2022-11-20T06:52:59;-0.20;99.90
71155;DHT22;59375;53.216;5.728;2022-11-20T06:55:25;-0.20;99.90
71155;DHT22;59375;53.216;5.728;2022-11-20T06:57:50;-0.20;99.90
71155;DHT22;59375;53.216;5.728;2022-11-20T07:00:16;-0.20;99.90
71155;DHT22;59375;53.216;5.728;2022-11-20T07:02:41;-0.20;99.90
71155;DHT22;59375;53.216;5.728;2022-11-20T07:05:07;-0.20;99.90
71155;DHT22;59375;53.216;5.728;2022-11-20T07:07:32;-0.20;99.90
71155;DHT22;59375;53.216;5.728;2022-11-20T07:09:58;-0.20;99.90
71155;DHT22;59375;53.216;5.728;2022-11-20T07:12:23;-0.10;99.90
71155;DHT22;59375;53.216;5.728;2022-11-20T07:14:48;-0.10;99.90
71155;DHT22;59375;53.216;5.728;2022-11-20T07:17:14;-0.10;99.90
71155;DHT22;59375;53.216;5.728;2022-11-20T07:19:39;-0.10;99.90
71155;DHT22;59375;53.216;5.728;2022-11-20T07:22:05;-0.10;99.90
71155;DHT22;59375;53.216;5.728;2022-11-20T07:24:30;-0.10;99.90
71155;DHT22;59375;53.216;5.728;2022-11-20T07:26:55;-0.10;99.90
71155;DHT22;59375;53.216;5.728;2022-11-20T07:29:21;-0.10;99.90
71155;DHT22;59375;53.216;5.728;2022-11-20T07:31:46;-0.10;99.90
71155;DHT22;59375;53.216;5.728;2022-11-20T07:34:12;-0.10;99.90
71155;DHT22;59375;53.216;5.728;2022-11-20T07:36:37;-0.10;99.90
71155;DHT22;59375;53.216;5.728;2022-11-20T07:39:03;-0.10;99.90
71155;DHT22;59375;53.216;5.728;2022-11-20T07:41:28;-0.10;99.90
71155;DHT22;59375;53.216;5.728;2022-11-20T07:43:54;-0.10;99.90
71155;DHT22;59375;53.216;5.728;2022-11-20T07:46:19;-0.10;99.90
71155;DHT22;59375;53.216;5.728;2022-11-20T07:48:45;-0.10;99.90
71155;DHT22;59375;53.216;5.728;2022-11-20T07:51:10;-0.20;99.90
71155;DHT22;59375;53.216;5.728;2022-11-20T07:53:36;-0.10;99.90
71155;DHT22;59375;53.216;5.728;2022-11-20T07:56:01;-0.10;99.90
71155;DHT22;59375;53.216;5.728;2022-11-20T07:58:30;-0.10;99.90
71155;DHT22;59375;53.216;5.728;2022-11-20T08:00:58;-0.10;99.90
71155;DHT22;59375;53.216;5.728;2022-11-20T08:03:23;-0.10;99.90
71155;DHT22;59375;53.216;5.728;2022-11-20T08:05:49;0.00;99.90
71155;DHT22;59375;53.216;5.728;2022-11-20T08:08:14;0.00;99.90
71155;DHT22;59375;53.216;5.728;2022-11-20T08:10:39;0.30;99.90
71155;DHT22;59375;53.216;5.728;2022-11-20T08:13:05;0.50;99.90
71155;DHT22;59375;53.216;5.728;2022-11-20T08:15:49;0.80;99.90
71155;DHT22;59375;53.216;5.728;2022-11-20T08:18:18;1.10;99.90
71155;DHT22;59375;53.216;5.728;2022-11-20T08:20:43;1.40;99.90
71155;DHT22;59375;53.216;5.728;2022-11-20T08:23:09;1.50;99.90
71155;DHT22;59375;53.216;5.728;2022-11-20T08:25:35;1.20;99.90
71155;DHT22;59375;53.216;5.728;2022-11-20T08:28:01;1.00;99.90
71155;DHT22;59375;53.216;5.728;2022-11-20T08:30:27;1.00;99.90
71155;DHT22;59375;53.216;5.728;2022-11-20T08:32:53;1.00;99.90
71155;DHT22;59375;53.216;5.728;2022-11-20T08:35:19;1.10;99.90
71155;DHT22;59375;53.216;5.728;2022-11-20T08:37:47;1.30;99.90
71155;DHT22;59375;53.216;5.728;2022-11-20T08:40:13;1.40;99.90
71155;DHT22;59375;53.216;5.728;2022-11-20T08:42:48;1.50;99.90
71155;DHT22;59375;53.216;5.728;2022-11-20T08:45:14;1.60;99.90
71155;DHT22;59375;53.216;5.728;2022-11-20T08:47:40;1.80;99.90
71155;DHT22;59375;53.216;5.728;2022-11-20T08:50:06;1.80;99.90
71155;DHT22;59375;53.216;5.728;2022-11-20T08:52:32;1.70;99.90
71155;DHT22;59375;53.216;5.728;2022-11-20T08:54:57;1.70;99.90
71155;DHT22;59375;53.216;5.728;2022-11-20T08:57:22;1.80;99.90
71155;DHT22;59375;53.216;5.728;2022-11-20T08:59:48;2.20;99.90
71155;DHT22;59375;53.216;5.728;2022-11-20T09:02:14;2.80;99.90
71155;DHT22;59375;53.216;5.728;2022-11-20T09:04:40;3.00;99.90
71155;DHT22;59375;53.216;5.728;2022-11-20T09:07:05;2.90;99.90
71155;DHT22;59375;53.216;5.728;2022-11-20T09:09:31;2.90;99.90
71155;DHT22;59375;53.216;5.728;2022-11-20T09:11:57;2.80;99.90
71155;DHT22;59375;53.216;5.728;2022-11-20T09:14:23;2.70;99.90
71155;DHT22;59375;53.216;5.728;2022-11-20T09:16:57;2.70;99.90
71155;DHT22;59375;53.216;5.728;2022-11-20T09:19:23;2.80;99.90
71155;DHT22;59375;53.216;5.728;2022-11-20T09:21:49;3.00;99.90
71155;DHT22;59375;53.216;5.728;2022-11-20T09:24:14;3.10;99.90
71155;DHT22;59375;53.216;5.728;2022-11-20T09:26:40;3.10;99.90
71155;DHT22;59375;53.216;5.728;2022-11-20T09:29:05;3.00;99.90
71155;DHT22;59375;53.216;5.728;2022-11-20T09:31:31;3.00;99.90
71155;DHT22;59375;53.216;5.728;2022-11-20T09:33:56;3.00;99.90
71155;DHT22;59375;53.216;5.728;2022-11-20T09:36:21;2.90;99.90
71155;DHT22;59375;53.216;5.728;2022-11-20T09:38:47;2.90;99.90
71155;DHT22;59375;53.216;5.728;2022-11-20T09:43:52;2.90;99.90
71155;DHT22;59375;53.216;5.728;2022-11-20T09:46:24;2.90;99.90
71155;DHT22;59375;53.216;5.728;2022-11-20T09:54:15;3.00;99.90
71155;DHT22;59375;53.216;5.728;2022-11-20T09:56:42;3.00;99.90
71155;DHT22;59375;53.216;5.728;2022-11-20T09:59:13;3.00;99.90
71155;DHT22;59375;53.216;5.728;2022-11-20T10:01:41;3.00;99.90
71155;DHT22;59375;53.216;5.728;2022-11-20T10:04:13;3.20;99.90
71155;DHT22;59375;53.216;5.728;2022-11-20T10:11:48;3.00;99.90
71155;DHT22;59375;53.216;5.728;2022-11-20T10:14:33;2.90;99.90
71155;DHT22;59375;53.216;5.728;2022-11-20T10:17:15;2.90;99.90
71155;DHT22;59375;53.216;5.728;2022-11-20T10:19:47;3.00;99.90
71155;DHT22;59375;53.216;5.728;2022-11-20T10:22:26;2.90;99.90
71155;DHT22;59375;53.216;5.728;2022-11-20T10:24:56;2.90;99.90
71155;DHT22;59375;53.216;5.728;2022-11-20T10:30:06;3.00;99.90
71155;DHT22;59375;53.216;5.728;2022-11-20T10:32:36;3.00;99.90
71155;DHT22;59375;53.216;5.728;2022-11-20T10:35:20;3.10;99.90
71155;DHT22;59375;53.216;5.728;2022-11-20T10:37:49;3.20;99.90
71155;DHT22;59375;53.216;5.728;2022-11-20T10:42:42;3.40;99.90
71155;DHT22;59375;53.216;5.728;2022-11-20T10:47:45;3.40;99.90
71155;DHT22;59375;53.216;5.728;2022-11-20T10:50:13;3.30;99.90
71155;DHT22;59375;53.216;5.728;2022-11-20T10:57:52;3.30;99.90
71155;DHT22;59375;53.216;5.728;2022-11-20T11:00:21;3.40;99.90
71155;DHT22;59375;53.216;5.728;2022-11-20T11:02:48;3.40;99.90
71155;DHT22;59375;53.216;5.728;2022-11-20T11:07:45;3.60;99.90
71155;DHT22;59375;53.216;5.728;2022-11-20T11:10:15;3.50;99.90
71155;DHT22;59375;53.216;5.728;2022-11-20T11:12:47;3.50;99.90
71155;DHT22;59375;53.216;5.728;2022-11-20T11:15:58;3.50;99.90
71155;DHT22;59375;53.216;5.728;2022-11-20T11:17:59;3.60;99.90
71155;DHT22;59375;53.216;5.728;2022-11-20T11:20:25;3.50;99.90
71155;DHT22;59375;53.216;5.728;2022-11-20T11:22:54;3.50;99.90
71155;DHT22;59375;53.216;5.728;2022-11-20T11:25:30;3.40;99.90
71155;DHT22;59375;53.216;5.728;2022-11-20T11:30:40;3.70;99.90
71155;DHT22;59375;53.216;5.728;2022-11-20T11:33:08;3.70;99.90
71155;DHT22;59375;53.216;5.728;2022-11-20T11:35:38;4.00;99.90
71155;DHT22;59375;53.216;5.728;2022-11-20T11:38:11;4.40;99.90
71155;DHT22;59375;53.216;5.728;2022-11-20T11:40:41;5.20;99.90
71155;DHT22;59375;53.216;5.728;2022-11-20T11:43:15;6.20;99.90
71155;DHT22;59375;53.216;5.728;2022-11-20T11:46:01;6.60;99.90
71155;DHT22;59375;53.216;5.728;2022-11-20T11:48:27;6.90;99.90
71155;DHT22;59375;53.216;5.728;2022-11-20T11:50:52;6.80;99.90
71155;DHT22;59375;53.216;5.728;2022-11-20T11:53:22;6.50;99.90
71155;DHT22;59375;53.216;5.728;2022-11-20T11:58:45;5.60;99.90
71155;DHT22;59375;53.216;5.728;2022-11-20T12:01:32;5.20;99.90
71155;DHT22;59375;53.216;5.728;2022-11-20T12:04:07;4.80;99.90
71155;DHT22;59375;53.216;5.728;2022-11-20T12:06:39;4.60;99.90
71155;DHT22;59375;53.216;5.728;2022-11-20T12:09:08;4.40;99.90
71155;DHT22;59375;53.216;5.728;2022-11-20T12:11:38;4.30;99.90
71155;DHT22;59375;53.216;5.728;2022-11-20T12:14:28;4.20;99.90
71155;DHT22;59375;53.216;5.728;2022-11-20T12:16:55;4.10;99.90
71155;DHT22;59375;53.216;5.728;2022-11-20T12:19:22;4.00;99.90
71155;DHT22;59375;53.216;5.728;2022-11-20T12:24:36;3.80;99.90
71155;DHT22;59375;53.216;5.728;2022-11-20T12:35:10;3.60;99.90
71155;DHT22;59375;53.216;5.728;2022-11-20T12:40:15;3.50;99.90
71155;DHT22;59375;53.216;5.728;2022-11-20T12:42:57;3.50;99.90
71155;DHT22;59375;53.216;5.728;2022-11-20T12:56:04;3.40;99.90
71155;DHT22;59375;53.216;5.728;2022-11-20T12:59:17;3.40;99.90
71155;DHT22;59375;53.216;5.728;2022-11-20T13:01:30;3.40;99.90
71155;DHT22;59375;53.216;5.728;2022-11-20T13:06:37;3.40;99.90
71155;DHT22;59375;53.216;5.728;2022-11-20T13:09:04;3.40;99.90
71155;DHT22;59375;53.216;5.728;2022-11-20T13:19:17;3.30;99.90
71155;DHT22;59375;53.216;5.728;2022-11-20T13:21:44;3.30;99.90
71155;DHT22;59375;53.216;5.728;2022-11-20T13:27:34;3.30;99.90
71155;DHT22;59375;53.216;5.728;2022-11-20T13:29:36;3.40;99.90
71155;DHT22;59375;53.216;5.728;2022-11-20T13:32:03;3.30;99.90
71155;DHT22;59375;53.216;5.728;2022-11-20T13:34:29;3.40;99.90
71155;DHT22;59375;53.216;5.728;2022-11-20T13:36:56;3.30;99.90
71155;DHT22;59375;53.216;5.728;2022-11-20T13:39:26;3.30;99.90
71155;DHT22;59375;53.216;5.728;2022-11-20T13:41:56;3.30;99.90
71155;DHT22;59375;53.216;5.728;2022-11-20T13:47:00;3.20;99.90
71155;DHT22;59375;53.216;5.728;2022-11-20T13:49:27;3.20;99.90
71155;DHT22;59375;53.216;5.728;2022-11-20T13:57:26;3.00;99.90
71155;DHT22;59375;53.216;5.728;2022-11-20T14:00:07;3.00;99.90
71155;DHT22;59375;53.216;5.728;2022-11-20T14:02:35;3.00;99.90
71155;DHT22;59375;53.216;5.728;2022-11-20T14:05:01;2.90;99.90
71155;DHT22;59375;53.216;5.728;2022-11-20T14:07:31;2.90;99.90
71155;DHT22;59375;53.216;5.728;2022-11-20T14:09:57;2.90;99.90
71155;DHT22;59375;53.216;5.728;2022-11-20T14:12:27;2.80;99.90
71155;DHT22;59375;53.216;5.728;2022-11-20T14:14:53;2.80;99.90
71155;DHT22;59375;53.216;5.728;2022-11-20T14:19:45;2.80;99.90
71155;DHT22;59375;53.216;5.728;2022-11-20T14:24:51;2.70;99.90
71155;DHT22;59375;53.216;5.728;2022-11-20T14:27:25;2.70;99.90
71155;DHT22;59375;53.216;5.728;2022-11-20T14:29:51;2.70;99.90
71155;DHT22;59375;53.216;5.728;2022-11-20T14:32:20;2.60;99.90
71155;DHT22;59375;53.216;5.728;2022-11-20T14:34:48;2.60;99.90
71155;DHT22;59375;53.216;5.728;2022-11-20T14:37:21;2.60;99.90
71155;DHT22;59375;53.216;5.728;2022-11-20T14:39:52;2.60;99.90
71155;DHT22;59375;53.216;5.728;2022-11-20T14:42:25;2.60;99.90
71155;DHT22;59375;53.216;5.728;2022-11-20T14:44:51;2.60;99.90
71155;DHT22;59375;53.216;5.728;2022-11-20T14:47:17;2.50;99.90
71155;DHT22;59375;53.216;5.728;2022-11-20T14:49:43;2.50;99.90
71155;DHT22;59375;53.216;5.728;2022-11-20T14:52:13;2.50;99.90
71155;DHT22;59375;53.216;5.728;2022-11-20T14:54:46;2.50;99.90
71155;DHT22;59375;53.216;5.728;2022-11-20T14:59:46;2.50;99.90
71155;DHT22;59375;53.216;5.728;2022-11-20T15:02:12;2.50;99.90
71155;DHT22;59375;53.216;5.728;2022-11-20T15:04:48;2.50;99.90
71155;DHT22;59375;53.216;5.728;2022-11-20T15:07:22;2.50;99.90
71155;DHT22;59375;53.216;5.728;2022-11-20T15:09:58;2.50;99.90
71155;DHT22;59375;53.216;5.728;2022-11-20T15:12:23;2.50;99.90
71155;DHT22;59375;53.216;5.728;2022-11-20T15:14:49;2.50;99.90
71155;DHT22;59375;53.216;5.728;2022-11-20T15:17:15;2.50;99.90
71155;DHT22;59375;53.216;5.728;2022-11-20T15:19:40;2.60;99.90
71155;DHT22;59375;53.216;5.728;2022-11-20T15:22:08;2.60;99.90
71155;DHT22;59375;53.216;5.728;2022-11-20T15:24:37;2.60;99.90
71155;DHT22;59375;53.216;5.728;2022-11-20T15:27:03;2.60;99.90
71155;DHT22;59375;53.216;5.728;2022-11-20T15:29:28;2.50;99.90
71155;DHT22;59375;53.216;5.728;2022-11-20T15:31:54;2.60;99.90
71155;DHT22;59375;53.216;5.728;2022-11-20T15:34:19;2.60;99.90
71155;DHT22;59375;53.216;5.728;2022-11-20T15:36:45;2.60;99.90
71155;DHT22;59375;53.216;5.728;2022-11-20T15:39:10;2.60;99.90
71155;DHT22;59375;53.216;5.728;2022-11-20T15:41:36;2.60;99.90
71155;DHT22;59375;53.216;5.728;2022-11-20T15:44:02;2.60;99.90
71155;DHT22;59375;53.216;5.728;2022-11-20T15:46:31;2.60;99.90
71155;DHT22;59375;53.216;5.728;2022-11-20T15:49:03;2.60;99.90
71155;DHT22;59375;53.216;5.728;2022-11-20T15:51:38;2.60;99.90
71155;DHT22;59375;53.216;5.728;2022-11-20T15:54:14;2.50;99.90
71155;DHT22;59375;53.216;5.728;2022-11-20T15:56:41;2.60;99.90
71155;DHT22;59375;53.216;5.728;2022-11-20T15:59:06;2.50;99.90
71155;DHT22;59375;53.216;5.728;2022-11-20T16:01:32;2.50;99.90
71155;DHT22;59375;53.216;5.728;2022-11-20T16:03:57;2.50;99.90
71155;DHT22;59375;53.216;5.728;2022-11-20T16:06:24;2.50;99.90
71155;DHT22;59375;53.216;5.728;2022-11-20T16:08:49;2.50;99.90
71155;DHT22;59375;53.216;5.728;2022-11-20T16:11:16;2.50;99.90
71155;DHT22;59375;53.216;5.728;2022-11-20T16:13:42;2.50;99.90
71155;DHT22;59375;53.216;5.728;2022-11-20T16:16:31;2.50;99.90
71155;DHT22;59375;53.216;5.728;2022-11-20T16:18:57;2.50;99.90
71155;DHT22;59375;53.216;5.728;2022-11-20T16:21:22;2.50;99.90
71155;DHT22;59375;53.216;5.728;2022-11-20T16:23:56;2.50;99.90
71155;DHT22;59375;53.216;5.728;2022-11-20T16:26:22;2.50;99.90
71155;DHT22;59375;53.216;5.728;2022-11-20T16:28:47;2.50;99.90
71155;DHT22;59375;53.216;5.728;2022-11-20T16:31:14;2.50;99.90
71155;DHT22;59375;53.216;5.728;2022-11-20T16:33:40;2.50;99.90
71155;DHT22;59375;53.216;5.728;2022-11-20T16:36:09;2.50;99.90
71155;DHT22;59375;53.216;5.728;2022-11-20T16:38:35;2.40;99.90
71155;DHT22;59375;53.216;5.728;2022-11-20T16:41:01;2.40;99.90
71155;DHT22;59375;53.216;5.728;2022-11-20T16:43:27;2.40;99.90
71155;DHT22;59375;53.216;5.728;2022-11-20T16:45:52;2.40;99.90
71155;DHT22;59375;53.216;5.728;2022-11-20T16:48:18;2.40;99.90
71155;DHT22;59375;53.216;5.728;2022-11-20T16:50:47;2.40;99.90
71155;DHT22;59375;53.216;5.728;2022-11-20T16:53:13;2.40;99.90
71155;DHT22;59375;53.216;5.728;2022-11-20T16:55:39;2.40;99.90
71155;DHT22;59375;53.216;5.728;2022-11-20T16:58:04;2.40;99.90
71155;DHT22;59375;53.216;5.728;2022-11-20T17:00:30;2.30;99.90
71155;DHT22;59375;53.216;5.728;2022-11-20T17:02:55;2.30;99.90
71155;DHT22;59375;53.216;5.728;2022-11-20T17:05:21;2.30;99.90
71155;DHT22;59375;53.216;5.728;2022-11-20T17:07:46;2.20;99.90
71155;DHT22;59375;53.216;5.728;2022-11-20T17:10:11;2.20;99.90
71155;DHT22;59375;53.216;5.728;2022-11-20T17:12:37;2.30;99.90
71155;DHT22;59375;53.216;5.728;2022-11-20T17:15:02;2.30;99.90